Time;durP1;ratioP1;P1;durP2;ratioP2;P2;SDS_P1;SDS_P2;PMS_P1;PMS_P2;Temp;Humidity;BMP_temperature;BMP_pressure;BME280_temperature;BME280_humidity;BME280_pressure;Samples;Min_cycle;Max_cycle;Signal;HPM_P1;HPM_P2
2023/10/21 00:02:02;;;;;;;2.30;1.37;;;15.40;1.00;;;;;;4987332;28;20186;-72
2023/10/21 00:04:29;;;;;;;1.57;1.10;;;15.40;1.00;;;;;;4987661;28;20278;-75
2023/10/21 00:06:54;;;;;;;1.70;1.40;;;15.40;1.00;;;;;;4987185;28;20477;-74
2023/10/21 00:09:20;;;;;;;2.53;1.10;;;15.50;1.00;;;;;;4986933;28;20515;-72
2023/10/21 00:11:46;;;;;;;2.57;1.30;;;15.50;1.00;;;;;;4987291;28;20283;-73
2023/10/21 00:14:12;;;;;;;1.57;1.27;;;15.60;1.00;;;;;;4986977;28;20713;-72
2023/10/21 00:16:37;;;;;;;2.30;1.53;;;15.70;1.00;;;;;;4987363;28;20195;-72
2023/10/21 00:19:03;;;;;;;2.80;1.40;;;15.70;1.00;;;;;;4986341;28;20191;-77
2023/10/21 00:21:29;;;;;;;1.77;0.97;;;15.80;1.00;;;;;;4984517;28;20740;-76
2023/10/21 00:23:55;;;;;;;1.50;1.00;;;;;;;;;;4990061;28;20183;-76
2023/10/21 00:26:21;;;;;;;1.47;0.90;;;16.00;1.00;;;;;;5005320;28;20549;-73
2023/10/21 00:28:47;;;;;;;1.10;0.80;;;16.10;1.00;;;;;;4989855;28;20500;-75
2023/10/21 00:31:13;;;;;;;1.60;0.80;;;16.30;1.00;;;;;;5002322;28;21123;-73
2023/10/21 00:33:38;;;;;;;4.30;1.13;;;16.60;1.00;;;;;;4991057;28;20202;-73
2023/10/21 00:36:04;;;;;;;1.40;0.80;;;16.70;1.00;;;;;;4984368;28;20223;-73
2023/10/21 00:38:30;;;;;;;2.50;0.80;;;16.90;1.00;;;;;;4992113;28;20213;-75
2023/10/21 00:40:56;;;;;;;1.10;0.80;;;17.00;1.00;;;;;;4986434;28;20186;-73
2023/10/21 00:43:36;;;;;;;1.97;0.87;;;17.10;1.00;;;;;;4987019;28;20183;-75
2023/10/21 00:46:07;;;;;;;1.10;0.80;;;17.20;1.00;;;;;;4980928;28;20469;-74
2023/10/21 00:48:32;;;;;;;2.30;0.70;;;17.20;1.00;;;;;;4991875;28;20521;-76
2023/10/21 00:50:59;;;;;;;2.67;1.20;;;17.30;1.00;;;;;;5000113;28;20641;-76
2023/10/21 00:53:24;;;;;;;2.27;0.83;;;17.40;1.00;;;;;;5006202;28;20218;-74
2023/10/21 00:55:51;;;;;;;5.80;0.80;;;17.50;1.00;;;;;;5004830;28;20454;-73
2023/10/21 00:58:18;;;;;;;1.17;0.80;;;17.50;1.00;;;;;;5008790;28;20179;-75
2023/10/21 01:00:44;;;;;;;1.20;0.80;;;;;;;;;;4993279;28;20442;-74
2023/10/21 01:03:09;;;;;;;1.20;0.70;;;17.60;1.00;;;;;;4994735;28;20808;-73
2023/10/21 01:05:35;;;;;;;1.30;0.80;;;17.60;1.00;;;;;;4992388;28;20598;-74
2023/10/21 01:08:01;;;;;;;1.90;0.80;;;;;;;;;;5007460;28;20198;-72
2023/10/21 01:10:27;;;;;;;1.30;0.90;;;17.60;1.00;;;;;;4992610;28;20186;-73
2023/10/21 01:12:52;;;;;;;1.57;0.73;;;17.60;1.00;;;;;;4992917;28;20203;-73
2023/10/21 01:15:18;;;;;;;2.90;0.70;;;17.60;1.00;;;;;;4992668;28;20485;-73
2023/10/21 01:17:50;;;;;;;1.20;0.80;;;17.50;1.00;;;;;;4993672;28;20171;-74
2023/10/21 01:20:19;;;;;;;1.50;0.90;;;17.60;1.00;;;;;;4993781;28;20522;-76
2023/10/21 01:22:45;;;;;;;1.20;0.60;;;17.60;1.00;;;;;;4993780;28;20430;-73
2023/10/21 01:25:11;;;;;;;1.20;0.70;;;17.50;1.00;;;;;;4994147;28;20454;-74
2023/10/21 01:27:37;;;;;;;1.07;0.70;;;;;;;;;;4993656;28;20214;-73
2023/10/21 01:30:05;;;;;;;1.20;0.80;;;17.40;1.00;;;;;;4992607;28;20549;-72
2023/10/21 01:32:31;;;;;;;1.07;0.67;;;17.40;1.00;;;;;;4991188;28;20470;-76
2023/10/21 01:34:57;;;;;;;1.63;0.80;;;17.40;1.00;;;;;;4991869;28;20450;-72
2023/10/21 01:37:23;;;;;;;1.20;0.70;;;;;;;;;;4991582;28;20254;-75
2023/10/21 01:39:48;;;;;;;1.20;0.70;;;17.40;1.00;;;;;;4986212;28;20265;-75
2023/10/21 01:42:14;;;;;;;8.17;0.80;;;17.30;1.00;;;;;;4990773;28;20966;-72
2023/10/21 01:44:39;;;;;;;1.10;0.60;;;17.30;1.00;;;;;;4994311;28;20189;-71
2023/10/21 01:47:06;;;;;;;1.10;0.70;;;;;;;;;;4994885;28;20237;-75
2023/10/21 01:49:32;;;;;;;1.10;0.70;;;17.30;1.00;;;;;;5007143;28;20570;-72
2023/10/21 01:51:58;;;;;;;6.30;0.80;;;17.30;1.00;;;;;;4992575;28;20440;-73
2023/10/21 01:54:23;;;;;;;1.10;0.70;;;17.30;1.00;;;;;;4991998;28;20253;-75
2023/10/21 01:56:49;;;;;;;1.20;0.70;;;17.30;1.00;;;;;;4991763;28;20219;-78
2023/10/21 01:59:14;;;;;;;1.20;0.80;;;16.90;1.00;;;;;;4992879;28;20183;-72
2023/10/21 02:01:41;;;;;;;1.27;0.70;;;17.20;1.00;;;;;;4993413;28;20557;-76
2023/10/21 02:04:07;;;;;;;1.10;0.80;;;;;;;;;;4994188;28;20660;-73
2023/10/21 02:06:32;;;;;;;1.40;0.70;;;17.20;1.00;;;;;;4994556;28;20461;-73
2023/10/21 02:08:58;;;;;;;1.77;0.90;;;17.20;1.00;;;;;;4993166;28;20561;-76
2023/10/21 02:11:26;;;;;;;1.10;0.80;;;17.20;1.00;;;;;;4994719;28;20199;-73
2023/10/21 02:13:52;;;;;;;1.20;0.70;;;17.10;1.00;;;;;;5007299;28;20295;-76
2023/10/21 02:16:18;;;;;;;1.10;0.70;;;17.10;1.00;;;;;;4992867;28;20946;-73
2023/10/21 02:18:44;;;;;;;1.30;0.70;;;;;;;;;;4990499;28;20194;-73
2023/10/21 02:21:09;;;;;;;1.27;0.70;;;17.10;1.00;;;;;;5003249;28;20565;-74
2023/10/21 02:23:35;;;;;;;3.27;0.90;;;17.10;1.00;;;;;;5004668;28;20190;-74
2023/10/21 02:26:03;;;;;;;1.70;0.73;;;17.10;1.00;;;;;;4988682;28;20229;-74
2023/10/21 02:28:29;;;;;;;1.10;0.70;;;17.00;1.00;;;;;;4989229;28;20527;-75
2023/10/21 02:30:55;;;;;;;1.47;0.87;;;17.00;1.00;;;;;;4988268;28;20496;-73
2023/10/21 02:33:21;;;;;;;1.20;0.70;;;17.10;1.00;;;;;;4988315;28;20281;-73
2023/10/21 02:35:55;;;;;;;1.00;0.70;;;17.10;1.00;;;;;;4989251;28;20223;-73
2023/10/21 02:38:22;;;;;;;1.20;0.70;;;16.90;1.00;;;;;;4985745;28;20512;-73
2023/10/21 02:40:48;;;;;;;4.03;0.83;;;16.90;1.00;;;;;;4988328;28;20544;-71
2023/10/21 02:43:14;;;;;;;1.10;0.80;;;16.80;1.00;;;;;;4988094;28;20450;-73
2023/10/21 02:45:40;;;;;;;1.20;0.80;;;;;;;;;;4987837;28;20470;-74
2023/10/21 02:48:06;;;;;;;1.00;0.70;;;16.80;1.00;;;;;;5003704;28;20274;-75
2023/10/21 02:50:31;;;;;;;2.37;0.70;;;16.80;1.00;;;;;;4986283;28;20242;-78
2023/10/21 02:52:57;;;;;;;1.00;0.70;;;16.80;1.00;;;;;;4988426;28;20713;-74
2023/10/21 02:55:25;;;;;;;1.10;0.70;;;16.80;1.00;;;;;;4987538;28;20277;-73
2023/10/21 02:57:50;;;;;;;1.10;0.77;;;16.80;1.00;;;;;;4987465;28;20245;-74
2023/10/21 03:00:17;;;;;;;1.10;0.70;;;16.80;1.00;;;;;;4988001;28;20450;-75
2023/10/21 03:02:43;;;;;;;1.20;0.70;;;;;;;;;;4988620;28;20602;-74
2023/10/21 03:05:09;;;;;;;1.10;0.70;;;16.70;1.00;;;;;;4988355;28;20472;-74
2023/10/21 03:07:35;;;;;;;1.20;0.70;;;16.70;1.00;;;;;;4988636;28;20931;-73
2023/10/21 03:10:01;;;;;;;1.10;0.70;;;;;;;;;;4987292;28;20195;-74
2023/10/21 03:12:27;;;;;;;1.20;0.83;;;;;;;;;;4981480;28;20210;-76
2023/10/21 03:14:55;;;;;;;2.60;1.00;;;16.70;1.00;;;;;;4987173;28;20431;-72
2023/10/21 03:17:21;;;;;;;1.30;0.70;;;16.70;1.00;;;;;;4988050;28;20435;-76
2023/10/21 03:19:46;;;;;;;1.10;0.80;;;16.70;1.00;;;;;;4988921;28;20430;-73
2023/10/21 03:22:12;;;;;;;1.30;0.87;;;16.60;1.00;;;;;;4985724;28;20241;-74
2023/10/21 03:24:37;;;;;;;1.00;0.70;;;16.70;1.00;;;;;;4987876;28;20206;-74
2023/10/21 03:27:03;;;;;;;1.10;0.70;;;16.70;1.00;;;;;;4987977;28;20337;-76
2023/10/21 03:29:29;;;;;;;1.10;0.70;;;16.70;1.00;;;;;;5003283;28;20381;-74
2023/10/21 03:31:54;;;;;;;1.00;0.77;;;16.70;1.00;;;;;;5003402;28;20558;-73
2023/10/21 03:34:20;;;;;;;1.17;0.70;;;16.70;1.00;;;;;;4987257;28;20525;-73
2023/10/21 03:36:45;;;;;;;1.10;0.70;;;16.70;1.00;;;;;;4984867;28;20198;-73
2023/10/21 03:39:11;;;;;;;1.00;0.77;;;16.70;1.00;;;;;;4987674;28;20194;-73
2023/10/21 03:41:37;;;;;;;1.00;0.70;;;;;;;;;;4987484;28;20178;-73
2023/10/21 03:44:03;;;;;;;1.00;0.70;;;;;;;;;;4987826;28;20521;-73
2023/10/21 03:46:30;;;;;;;1.10;0.70;;;;;;;;;;4987822;28;20492;-72
2023/10/21 03:48:56;;;;;;;1.10;0.70;;;;;;;;;;4987581;28;20437;-73
2023/10/21 03:51:22;;;;;;;4.53;0.70;;;16.60;1.00;;;;;;4987304;28;20438;-77
2023/10/21 03:53:48;;;;;;;2.43;0.80;;;16.60;1.00;;;;;;4987553;28;20461;-74
2023/10/21 03:56:14;;;;;;;2.07;0.90;;;16.60;1.00;;;;;;4985090;28;20637;-73
2023/10/21 03:58:41;;;;;;;1.10;0.70;;;16.60;1.00;;;;;;4989506;28;20241;-74
2023/10/21 04:01:07;;;;;;;1.20;0.90;;;16.60;1.00;;;;;;4990618;28;20198;-69
2023/10/21 04:03:33;;;;;;;2.13;0.83;;;16.50;1.00;;;;;;4991044;28;20450;-74
2023/10/21 04:05:59;;;;;;;1.70;0.90;;;16.60;1.00;;;;;;4989589;28;20215;-73
2023/10/21 04:08:27;;;;;;;1.50;0.90;;;16.60;1.00;;;;;;4991059;28;20527;-73
2023/10/21 04:10:53;;;;;;;1.93;0.90;;;16.60;1.00;;;;;;4990847;28;20215;-71
2023/10/21 04:13:19;;;;;;;1.40;0.97;;;16.60;1.00;;;;;;4990874;28;20496;-73
2023/10/21 04:15:45;;;;;;;1.30;0.73;;;;;;;;;;4990917;28;20249;-72
2023/10/21 04:18:10;;;;;;;1.53;0.80;;;16.60;1.00;;;;;;4990420;28;20195;-74
2023/10/21 04:20:36;;;;;;;1.50;0.73;;;16.50;1.00;;;;;;4988872;28;20473;-74
2023/10/21 04:23:02;;;;;;;1.37;0.83;;;;;;;;;;4989875;28;20557;-75
2023/10/21 04:25:28;;;;;;;1.10;0.80;;;16.60;1.00;;;;;;4990135;28;20209;-74
2023/10/21 04:27:55;;;;;;;2.07;1.00;;;16.50;1.00;;;;;;4991307;28;20529;-73
2023/10/21 04:30:21;;;;;;;1.20;0.80;;;16.50;1.00;;;;;;4991504;28;20206;-73
2023/10/21 04:32:46;;;;;;;2.73;0.90;;;16.50;1.00;;;;;;4990121;28;20478;-76
2023/10/21 04:35:12;;;;;;;1.10;0.90;;;17.20;1.00;;;;;;5004282;28;20290;-73
2023/10/21 04:37:38;;;;;;;2.13;0.90;;;16.50;1.00;;;;;;5004510;28;22121;-73
2023/10/21 04:40:04;;;;;;;2.30;0.83;;;;;;;;;;4990732;28;20202;-73
2023/10/21 04:42:30;;;;;;;5.63;0.90;;;;;;;;;;4988793;28;20203;-73
2023/10/21 04:44:56;;;;;;;1.90;0.93;;;;;;;;;;4989494;28;20469;-75
2023/10/21 04:47:22;;;;;;;1.10;0.87;;;16.40;1.00;;;;;;4991245;28;20226;-74
2023/10/21 04:49:47;;;;;;;3.10;0.90;;;16.40;1.00;;;;;;5005535;28;20512;-74
2023/10/21 04:52:17;;;;;;;2.30;1.10;;;16.40;1.00;;;;;;4989535;28;20198;-73
2023/10/21 04:54:43;;;;;;;1.67;0.80;;;16.40;1.00;;;;;;4988867;28;20179;-73
2023/10/21 04:57:10;;;;;;;1.30;0.80;;;16.40;1.00;;;;;;4990426;28;20465;-73
2023/10/21 04:59:35;;;;;;;1.13;0.83;;;16.30;1.00;;;;;;4989401;28;20472;-76
2023/10/21 05:02:01;;;;;;;1.83;0.90;;;16.30;1.00;;;;;;4989462;28;21003;-77
2023/10/21 05:04:27;;;;;;;12.97;1.10;;;16.20;1.00;;;;;;4988091;28;20198;-74
2023/10/21 05:06:53;;;;;;;1.60;0.80;;;;;;;;;;4987745;28;20212;-74
2023/10/21 05:09:19;;;;;;;2.40;0.90;;;16.10;1.00;;;;;;4988443;28;20542;-73
2023/10/21 05:11:45;;;;;;;1.70;0.83;;;16.10;1.00;;;;;;4990037;28;20226;-74
2023/10/21 05:14:10;;;;;;;1.10;0.90;;;16.10;1.00;;;;;;4987974;28;21007;-73
2023/10/21 05:16:36;;;;;;;1.60;0.77;;;;;;;;;;4990343;28;20210;-73
2023/10/21 05:19:03;;;;;;;4.10;1.20;;;16.10;1.00;;;;;;4989333;28;20214;-74
2023/10/21 05:21:29;;;;;;;1.07;0.80;;;16.00;1.00;;;;;;4988233;28;20206;-74
2023/10/21 05:23:54;;;;;;;1.40;0.90;;;16.00;1.00;;;;;;4990557;28;20509;-75
2023/10/21 05:26:20;;;;;;;1.20;0.80;;;15.90;1.00;;;;;;4988178;28;20689;-77
2023/10/21 05:28:46;;;;;;;1.30;0.97;;;15.90;1.00;;;;;;4989473;28;20198;-73
2023/10/21 05:31:11;;;;;;;1.40;0.80;;;15.90;1.00;;;;;;4989669;28;20195;-74
2023/10/21 05:33:37;;;;;;;1.73;0.90;;;15.90;1.00;;;;;;4988876;28;20210;-76
2023/10/21 05:36:03;;;;;;;1.20;0.80;;;15.90;1.00;;;;;;4989225;28;20246;-72
2023/10/21 05:38:28;;;;;;;1.30;0.90;;;15.80;1.00;;;;;;4988875;28;20178;-74
2023/10/21 05:40:57;;;;;;;1.10;0.90;;;15.80;1.00;;;;;;4988448;28;20979;-73
2023/10/21 05:43:23;;;;;;;5.20;1.00;;;15.70;1.00;;;;;;4988790;28;20206;-74
2023/10/21 05:45:48;;;;;;;1.30;0.90;;;15.70;1.00;;;;;;4988932;28;20979;-75
2023/10/21 05:48:14;;;;;;;1.60;0.80;;;15.50;1.00;;;;;;5003985;28;20578;-77
2023/10/21 05:50:39;;;;;;;4.30;0.90;;;15.50;1.00;;;;;;5003579;28;20199;-73
2023/10/21 05:53:05;;;;;;;1.30;0.80;;;15.40;1.00;;;;;;4976205;28;20208;-71
2023/10/21 05:55:31;;;;;;;1.13;0.80;;;;;;;;;;4990559;28;20225;-73
2023/10/21 05:57:56;;;;;;;1.20;0.80;;;15.40;1.00;;;;;;4989882;28;20188;-76
2023/10/21 06:00:22;;;;;;;1.17;0.80;;;15.40;1.00;;;;;;4987846;28;20524;-73
2023/10/21 06:02:47;;;;;;;1.20;0.90;;;15.40;1.00;;;;;;4984230;28;20285;-75
2023/10/21 06:05:16;;;;;;;1.13;0.77;;;15.40;1.00;;;;;;4987135;28;20218;-74
2023/10/21 06:07:41;;;;;;;1.10;0.73;;;17.10;1.00;;;;;;4985457;28;20249;-73
2023/10/21 06:10:07;;;;;;;1.60;1.00;;;15.30;1.00;;;;;;4987864;28;20529;-73
2023/10/21 06:12:33;;;;;;;2.77;1.00;;;15.30;1.00;;;;;;4986100;28;20218;-74
2023/10/21 06:14:59;;;;;;;1.47;0.90;;;15.30;1.00;;;;;;4987471;28;20875;-77
2023/10/21 06:17:25;;;;;;;1.97;0.97;;;15.80;1.00;;;;;;4985081;28;20191;-76
2023/10/21 06:19:51;;;;;;;2.53;1.10;;;15.20;1.00;;;;;;4988397;28;20451;-73
2023/10/21 06:22:17;;;;;;;1.63;0.80;;;15.30;1.00;;;;;;4985141;28;20250;-76
2023/10/21 06:24:43;;;;;;;1.73;0.83;;;15.30;1.00;;;;;;4987759;28;20973;-74
2023/10/21 06:27:09;;;;;;;3.77;0.97;;;15.40;1.00;;;;;;4986090;28;20209;-73
2023/10/21 06:29:35;;;;;;;1.37;0.93;;;;;;;;;;4987403;28;20442;-75
2023/10/21 06:32:04;;;;;;;1.40;0.90;;;15.50;1.00;;;;;;4986704;28;20442;-73
2023/10/21 06:34:29;;;;;;;1.43;1.00;;;15.60;1.00;;;;;;4986925;28;20616;-73
2023/10/21 06:36:55;;;;;;;1.00;0.70;;;15.60;1.00;;;;;;4986645;28;20784;-74
2023/10/21 06:39:21;;;;;;;1.00;0.70;;;15.60;1.00;;;;;;4986380;28;20713;-79
2023/10/21 06:41:46;;;;;;;2.13;1.00;;;15.70;1.00;;;;;;4987016;28;20183;-76
2023/10/21 06:44:12;;;;;;;1.20;0.90;;;15.70;1.00;;;;;;4985820;28;20310;-73
2023/10/21 06:46:38;;;;;;;1.10;0.80;;;17.10;1.00;;;;;;4988033;28;20206;-74
2023/10/21 06:49:04;;;;;;;4.67;0.90;;;15.80;1.00;;;;;;4989099;28;20333;-73
2023/10/21 06:51:30;;;;;;;2.50;1.07;;;15.70;1.00;;;;;;4987995;28;20533;-76
2023/10/21 06:53:55;;;;;;;1.10;0.70;;;15.80;1.00;;;;;;4988092;28;20214;-74
2023/10/21 06:56:21;;;;;;;1.10;0.70;;;15.80;1.00;;;;;;4986447;28;20207;-74
2023/10/21 06:58:49;;;;;;;2.63;0.80;;;15.80;1.00;;;;;;4986869;28;20218;-77
2023/10/21 07:01:15;;;;;;;1.50;0.87;;;18.70;1.00;;;;;;4987587;28;20552;-74
2023/10/21 07:03:41;;;;;;;1.20;0.80;;;15.80;1.00;;;;;;4987655;28;20450;-77
2023/10/21 07:06:07;;;;;;;1.13;0.80;;;15.90;1.00;;;;;;5005508;28;20286;-74
2023/10/21 07:08:35;;;;;;;1.33;0.77;;;15.80;1.00;;;;;;4988780;28;20190;-72
2023/10/21 07:11:02;;;;;;;1.30;0.70;;;15.90;1.00;;;;;;5002572;28;20433;-75
2023/10/21 07:13:28;;;;;;;1.03;0.70;;;15.90;1.00;;;;;;4985942;28;20469;-73
2023/10/21 07:15:54;;;;;;;1.00;0.70;;;15.80;1.00;;;;;;4988181;28;20465;-75
2023/10/21 07:18:19;;;;;;;1.20;0.80;;;16.00;1.00;;;;;;4987447;28;20245;-75
2023/10/21 07:20:46;;;;;;;1.30;0.83;;;16.00;1.00;;;;;;4988267;28;20183;-73
2023/10/21 07:23:14;;;;;;;1.40;0.73;;;16.00;1.00;;;;;;4987225;28;20234;-74
2023/10/21 07:25:41;;;;;;;2.40;1.00;;;16.00;1.00;;;;;;4986690;28;20484;-74
2023/10/21 07:28:06;;;;;;;1.07;0.83;;;16.50;1.00;;;;;;4987564;28;20441;-73
2023/10/21 07:30:32;;;;;;;1.50;0.80;;;16.00;1.00;;;;;;4987441;28;20446;-73
2023/10/21 07:33:00;;;;;;;1.20;0.70;;;;;;;;;;4987412;28;20210;-73
2023/10/21 07:35:26;;;;;;;1.00;0.70;;;16.00;1.00;;;;;;4991323;28;20695;-73
2023/10/21 07:37:54;;;;;;;2.50;0.90;;;16.00;1.00;;;;;;4991253;28;20524;-76
2023/10/21 07:40:20;;;;;;;1.30;0.80;;;16.00;1.00;;;;;;4989335;28;20500;-73
2023/10/21 07:42:45;;;;;;;1.10;0.70;;;16.10;1.00;;;;;;4991704;28;20446;-72
2023/10/21 07:45:14;;;;;;;1.77;0.70;;;16.00;1.00;;;;;;4990413;28;20268;-74
2023/10/21 07:47:40;;;;;;;4.60;0.80;;;;;;;;;;4983876;28;20206;-73
2023/10/21 07:50:10;;;;;;;1.10;0.70;;;16.10;1.00;;;;;;4991777;28;20501;-72
2023/10/21 07:52:36;;;;;;;1.10;0.70;;;16.10;1.00;;;;;;4991391;28;20445;-74
2023/10/21 07:55:03;;;;;;;2.00;1.10;;;16.10;1.00;;;;;;4992261;28;20453;-73
2023/10/21 07:57:29;;;;;;;2.97;0.80;;;16.10;1.00;;;;;;4990883;28;20450;-75
2023/10/21 07:59:54;;;;;;;1.40;0.90;;;16.10;1.00;;;;;;4991532;28;20967;-73
2023/10/21 08:02:21;;;;;;;1.20;0.80;;;16.10;1.00;;;;;;4993221;28;20426;-73
2023/10/21 08:04:47;;;;;;;1.43;0.80;;;16.20;1.00;;;;;;4993535;28;20735;-71
2023/10/21 08:07:12;;;;;;;1.53;0.73;;;16.20;1.00;;;;;;4990351;28;20458;-73
2023/10/21 08:09:38;;;;;;;1.60;0.70;;;;;;;;;;4992291;28;20638;-75
2023/10/21 08:12:04;;;;;;;1.20;0.80;;;16.30;1.00;;;;;;5007672;28;20277;-75
2023/10/21 08:14:31;;;;;;;1.30;0.90;;;16.50;1.00;;;;;;4993290;28;20485;-76
2023/10/21 08:17:00;;;;;;;2.27;1.03;;;16.70;1.00;;;;;;4993618;28;20508;-73
2023/10/21 08:19:25;;;;;;;1.40;0.90;;;17.10;1.00;;;;;;4993053;28;20441;-73
2023/10/21 08:21:51;;;;;;;1.20;0.70;;;17.10;1.00;;;;;;5007363;28;20455;-73
2023/10/21 08:24:17;;;;;;;2.13;0.90;;;;;;;;;;4992166;28;20217;-73
2023/10/21 08:26:43;;;;;;;10.33;1.00;;;17.20;1.00;;;;;;4993141;28;20274;-74
2023/10/21 08:29:10;;;;;;;4.67;0.90;;;17.20;1.00;;;;;;4993472;28;20505;-73
2023/10/21 08:31:35;;;;;;;1.40;0.80;;;17.30;1.00;;;;;;4992791;28;20183;-74
2023/10/21 08:34:01;;;;;;;1.33;0.77;;;17.50;1.00;;;;;;4992013;28;20855;-73
2023/10/21 08:36:26;;;;;;;2.67;1.00;;;17.50;1.00;;;;;;4992850;28;20203;-73
2023/10/21 08:38:53;;;;;;;1.53;0.90;;;;;;;;;;4992971;28;20611;-73
2023/10/21 08:41:19;;;;;;;6.10;1.00;;;;;;;;;;4992285;28;20202;-71
2023/10/21 08:43:46;;;;;;;4.03;1.10;;;17.50;1.00;;;;;;4993011;28;20928;-73
2023/10/21 08:46:16;;;;;;;2.20;1.30;;;18.10;1.00;;;;;;4992610;28;20301;-73
2023/10/21 08:48:47;;;;;;;3.70;1.10;;;19.70;1.00;;;;;;4991693;28;20437;-73
2023/10/21 08:51:17;;;;;;;2.40;0.93;;;21.70;1.00;;;;;;4991546;28;20437;-74
2023/10/21 08:53:46;;;;;;;3.07;1.00;;;23.00;1.00;;;;;;4992117;28;20457;-74
2023/10/21 08:56:12;;;;;;;2.30;0.90;;;24.30;1.00;;;;;;4992802;28;20808;-73
2023/10/21 08:58:38;;;;;;;2.30;1.07;;;25.20;1.00;;;;;;4992218;28;20425;-72
2023/10/21 09:01:05;;;;;;;2.80;1.00;;;25.20;1.00;;;;;;4991917;28;20904;-73
2023/10/21 09:03:32;;;;;;;4.30;0.93;;;25.30;1.00;;;;;;4992355;28;20187;-75
2023/10/21 09:06:11;;;;;;;4.87;1.13;;;24.90;1.00;;;;;;4992328;28;20468;-73
2023/10/21 09:08:38;;;;;;;3.27;1.17;;;25.10;1.00;;;;;;4992305;28;20421;-76
2023/10/21 09:11:07;;;;;;;4.43;1.17;;;25.80;1.00;;;;;;4991916;28;20441;-73
2023/10/21 09:13:37;;;;;;;3.10;1.10;;;25.60;1.00;;;;;;4991453;28;21017;-74
2023/10/21 09:16:04;;;;;;;2.10;1.00;;;25.90;1.00;;;;;;4992332;28;20500;-74
2023/10/21 09:18:32;;;;;;;4.53;1.00;;;26.90;1.00;;;;;;4992182;28;20433;-74
2023/10/21 09:20:58;;;;;;;5.10;1.10;;;27.50;1.00;;;;;;4991231;28;20261;-73
2023/10/21 09:23:24;;;;;;;5.00;1.00;;;27.20;1.00;;;;;;4991500;28;20182;-74
2023/10/21 09:25:52;;;;;;;4.23;1.33;;;27.10;1.00;;;;;;4991515;28;20243;-76
2023/10/21 09:28:22;;;;;;;3.40;1.00;;;27.50;1.00;;;;;;4992217;28;20194;-76
2023/10/21 09:30:56;;;;;;;2.07;0.87;;;27.30;1.00;;;;;;4988784;28;20182;-74
2023/10/21 09:33:23;;;;;;;2.70;1.00;;;28.00;1.00;;;;;;4990955;28;20210;-78
2023/10/21 09:36:03;;;;;;;2.37;0.93;;;28.10;1.00;;;;;;4988816;28;20566;-74
2023/10/21 09:38:36;;;;;;;3.40;1.20;;;27.80;1.00;;;;;;4987615;28;20179;-73
2023/10/21 09:41:07;;;;;;;3.43;1.10;;;28.20;1.00;;;;;;4984025;28;20257;-74
2023/10/21 09:43:36;;;;;;;3.45;1.17;;;29.20;1.00;;;;;;4990382;28;20182;-75
2023/10/21 09:46:05;;;;;;;3.00;0.88;;;30.30;1.00;;;;;;4993464;28;20210;-74
2023/10/21 09:48:41;;;;;;;3.97;1.00;;;29.10;1.00;;;;;;5006491;28;20186;-74
2023/10/21 09:51:09;;;;;;;2.23;0.90;;;28.30;1.00;;;;;;4991406;28;20581;-74
2023/10/21 09:53:43;;;;;;;2.35;0.80;;;27.60;1.00;;;;;;4991200;28;20289;-77
2023/10/21 09:56:11;;;;;;;3.22;1.00;;;28.80;1.00;;;;;;4990144;28;20223;-76
2023/10/21 09:58:40;;;;;;;4.15;1.05;;;29.50;1.00;;;;;;4992995;28;20186;-74
2023/10/21 10:01:07;;;;;;;2.10;0.75;;;30.20;1.00;;;;;;4990867;28;20661;-74
2023/10/21 10:03:36;;;;;;;2.20;0.90;;;29.40;1.00;;;;;;4991245;28;20194;-76
2023/10/21 10:06:04;;;;;;;4.18;1.00;;;29.30;1.00;;;;;;5005673;28;20242;-73
2023/10/21 10:08:33;;;;;;;3.63;0.90;;;29.90;1.00;;;;;;4983565;28;20186;-75
2023/10/21 10:11:06;;;;;;;2.67;0.80;;;30.30;1.00;;;;;;4990036;28;20174;-73
2023/10/21 10:13:34;;;;;;;3.10;1.02;;;29.70;1.00;;;;;;4990114;28;20768;-74
2023/10/21 10:16:27;;;;;;;2.70;1.10;;;28.80;1.00;;;;;;5004383;28;20593;-74
2023/10/21 10:18:55;;;;;;;2.90;1.10;;;30.50;1.00;;;;;;4989752;28;20179;-74
2023/10/21 10:21:21;;;;;;;3.38;0.90;;;29.60;1.00;;;;;;4987607;28;20174;-73
2023/10/21 10:23:51;;;;;;;3.03;0.90;;;28.70;1.00;;;;;;4988631;28;20200;-73
2023/10/21 10:26:37;;;;;;;2.33;1.00;;;25.80;1.00;;;;;;4988878;28;20275;-74
2023/10/21 10:29:24;;;;;;;2.50;1.00;;;25.80;1.00;;;;;;4986346;28;20261;-74
2023/10/21 10:31:51;;;;;;;4.07;1.00;;;27.70;1.00;;;;;;4986040;28;20683;-75
2023/10/21 10:34:17;;;;;;;6.63;1.37;;;30.00;1.00;;;;;;4989272;28;20206;-74
2023/10/21 10:36:43;;;;;;;2.72;1.00;;;31.10;1.00;;;;;;4988176;28;20692;-75
2023/10/21 10:39:38;;;;;;;3.03;1.00;;;32.10;1.00;;;;;;4988443;28;20188;-74
2023/10/21 10:42:04;;;;;;;2.33;0.85;;;30.30;1.00;;;;;;4985012;28;20655;-75
2023/10/21 10:44:30;;;;;;;3.22;1.10;;;29.70;1.00;;;;;;4987946;28;20318;-72
2023/10/21 10:46:56;;;;;;;3.22;0.90;;;29.60;1.00;;;;;;4988083;28;20217;-74
2023/10/21 10:49:22;;;;;;;2.97;1.00;;;29.40;1.00;;;;;;4986741;28;20194;-74
2023/10/21 10:51:47;;;;;;;2.30;0.93;;;28.80;1.00;;;;;;4987578;28;20183;-75
2023/10/21 10:54:17;;;;;;;2.00;0.80;;;29.00;1.00;;;;;;4987616;28;20214;-74
2023/10/21 10:56:44;;;;;;;2.05;0.80;;;29.70;1.00;;;;;;4988048;28;20265;-74
2023/10/21 10:59:18;;;;;;;2.38;0.90;;;30.80;1.00;;;;;;4988798;28;20241;-75
2023/10/21 11:01:55;;;;;;;3.95;1.10;;;31.10;1.00;;;;;;4988828;28;20186;-75
2023/10/21 11:04:21;;;;;;;2.50;1.20;;;31.50;1.00;;;;;;4987295;28;20273;-74
2023/10/21 11:06:46;;;;;;;2.20;0.90;;;33.10;1.00;;;;;;5003006;28;20344;-75
2023/10/21 11:09:17;;;;;;;1.88;0.80;;;33.70;1.00;;;;;;4989057;28;20191;-75
2023/10/21 11:11:47;;;;;;;2.90;0.93;;;32.80;1.00;;;;;;4985518;28;20186;-74
2023/10/21 11:14:16;;;;;;;5.25;1.10;;;30.20;1.00;;;;;;4987638;28;20213;-75
2023/10/21 11:16:43;;;;;;;3.65;1.10;;;28.20;1.00;;;;;;4990447;28;20213;-74
2023/10/21 11:19:08;;;;;;;2.20;0.90;;;29.00;1.00;;;;;;4995198;28;20186;-74
2023/10/21 11:21:39;;;;;;;2.85;1.00;;;30.90;1.00;;;;;;4993038;28;20190;-74
2023/10/21 11:24:10;;;;;;;2.95;1.00;;;31.70;1.00;;;;;;4990503;28;20534;-76
2023/10/21 11:26:37;;;;;;;4.35;1.00;;;31.80;1.00;;;;;;4989776;28;20558;-75
2023/10/21 11:29:06;;;;;;;2.60;0.90;;;31.70;1.00;;;;;;4990350;28;20194;-76
2023/10/21 11:31:33;;;;;;;4.10;1.00;;;31.60;1.00;;;;;;4990227;28;20561;-78
2023/10/21 11:34:12;;;;;;;2.80;1.13;;;29.90;1.00;;;;;;4977244;28;20261;-76
2023/10/21 11:36:40;;;;;;;2.60;0.95;;;30.60;1.00;;;;;;4982475;28;20203;-79
2023/10/21 11:39:13;;;;;;;2.95;1.20;;;30.70;1.00;;;;;;4989901;28;20187;-78
2023/10/21 11:41:49;;;;;;;3.75;1.10;;;31.40;1.00;;;;;;4986697;28;20186;-75
2023/10/21 11:44:25;;;;;;;2.75;1.10;;;30.60;1.00;;;;;;4988065;28;20193;-76
2023/10/21 11:46:50;;;;;;;3.17;1.10;;;29.40;1.00;;;;;;4987909;28;20249;-76
2023/10/21 11:49:16;;;;;;;2.77;0.97;;;28.10;1.00;;;;;;4990310;28;20237;-76
2023/10/21 11:51:42;;;;;;;3.03;0.80;;;27.40;1.00;;;;;;4989315;28;20265;-76
2023/10/21 11:54:09;;;;;;;2.63;1.27;;;27.50;1.00;;;;;;4989557;28;20210;-77
2023/10/21 12:03:19;;;;;;;4.60;1.00;;;26.50;1.00;;;;;;4981553;28;20878;-73
2023/10/21 12:15:46;;;;;;;3.40;0.98;;;31.80;1.00;;;;;;4989431;28;20354;-76
2023/10/21 12:21:16;;;;;;;2.67;1.27;;;33.10;1.00;;;;;;4990288;28;20194;-76
2023/10/21 12:24:27;;;;;;;2.55;0.93;;;33.70;1.00;;;;;;4992743;28;20190;-76
2023/10/21 12:26:56;;;;;;;7.78;1.20;;;32.20;1.00;;;;;;4989814;28;20209;-75
2023/10/21 12:42:51;;;;;;;3.17;1.10;;;27.40;1.00;;;;;;4993267;28;20183;-76
2023/10/21 12:45:19;;;;;;;3.17;1.10;;;25.00;1.00;;;;;;4992961;28;20210;-75
2023/10/21 12:47:48;;;;;;;3.43;1.10;;;23.70;1.00;;;;;;4993306;28;20504;-76
2023/10/21 12:50:14;;;;;;;5.23;1.20;;;23.10;1.00;;;;;;4993022;28;20432;-75
2023/10/21 12:52:40;;;;;;;5.33;0.93;;;22.10;1.00;;;;;;4993053;28;20424;-75
2023/10/21 12:55:10;;;;;;;4.17;1.30;;;23.30;1.00;;;;;;4993468;28;20418;-75
2023/10/21 12:57:36;;;;;;;2.50;1.00;;;23.50;1.00;;;;;;4993401;28;20175;-75
2023/10/21 13:00:03;;;;;;;3.17;1.03;;;23.80;1.00;;;;;;4992577;28;20438;-75
2023/10/21 13:02:29;;;;;;;5.57;0.97;;;24.10;1.00;;;;;;4993029;28;20510;-75
2023/10/21 13:04:55;;;;;;;4.10;1.20;;;24.40;1.00;;;;;;4992574;28;20689;-75
2023/10/21 13:07:20;;;;;;;3.30;1.00;;;24.30;1.00;;;;;;4991250;28;20205;-76
2023/10/21 13:09:46;;;;;;;2.30;1.10;;;23.70;1.00;;;;;;4991851;28;20187;-75
2023/10/21 13:12:14;;;;;;;6.60;1.20;;;22.90;1.00;;;;;;4991430;28;20183;-76
2023/10/21 13:14:40;;;;;;;2.60;1.10;;;22.40;1.00;;;;;;4992104;28;20272;-75
2023/10/21 13:17:08;;;;;;;2.20;0.90;;;22.20;1.00;;;;;;4988967;28;20453;-76
2023/10/21 13:19:34;;;;;;;4.10;1.00;;;22.30;1.00;;;;;;4991777;28;20461;-74
2023/10/21 13:21:59;;;;;;;3.30;1.00;;;22.40;1.00;;;;;;4988463;28;20434;-75
2023/10/21 13:24:25;;;;;;;2.93;0.90;;;22.60;1.00;;;;;;4988818;28;20444;-76
2023/10/21 13:26:51;;;;;;;3.10;1.00;;;21.90;1.00;;;;;;4986641;28;20206;-76
2023/10/21 13:29:17;;;;;;;4.23;1.13;;;22.00;1.00;;;;;;4989511;28;20240;-76
2023/10/21 13:31:43;;;;;;;2.33;0.97;;;22.00;1.00;;;;;;4984807;28;20529;-76
2023/10/21 13:34:08;;;;;;;3.13;1.10;;;21.90;1.00;;;;;;4984729;28;20252;-75
2023/10/21 13:36:34;;;;;;;2.93;1.00;;;22.00;1.00;;;;;;4981687;28;20199;-74
2023/10/21 13:39:00;;;;;;;2.93;0.90;;;22.30;1.00;;;;;;4987989;28;20183;-74